Time;durP1;ratioP1;P1;durP2;ratioP2;P2;SDS_P1;SDS_P2;PMS_P1;PMS_P2;Temp;Humidity;BMP_temperature;BMP_pressure;BME280_temperature;BME280_humidity;BME280_pressure;Samples;Min_cycle;Max_cycle;Signal;HPM_P1;HPM_P2
2023/07/31 00:01:13;;;;;;;1.40;1.30;;;;;;;14.83;100.00;100984.94;6189071;23;20018;-75
2023/07/31 00:03:39;;;;;;;4.28;1.52;;;;;;;14.85;100.00;100985.97;6188959;23;20014;-75
2023/07/31 00:06:06;;;;;;;2.10;1.50;;;;;;;14.86;100.00;100978.66;6189571;23;20017;-75
2023/07/31 00:08:33;;;;;;;2.05;1.40;;;;;;;14.85;100.00;100977.94;6188982;23;20084;-75
2023/07/31 00:10:59;;;;;;;2.88;1.40;;;;;;;14.87;100.00;100969.44;6189686;23;20064;-75
2023/07/31 00:13:26;;;;;;;1.45;1.23;;;;;;;14.89;100.00;100959.72;6188837;23;20017;-75
2023/07/31 00:15:54;;;;;;;1.35;1.25;;;;;;;14.92;100.00;100950.75;6188938;23;20025;-75
2023/07/31 00:18:21;;;;;;;1.77;1.00;;;;;;;14.94;100.00;100944.94;6188913;23;20538;-74
2023/07/31 00:20:47;;;;;;;4.40;1.20;;;;;;;14.95;100.00;100933.75;6189529;23;20014;-74
2023/07/31 00:23:14;;;;;;;1.58;1.48;;;;;;;14.96;100.00;100945.22;6163391;23;20020;-74
2023/07/31 00:25:41;;;;;;;2.35;1.67;;;;;;;14.97;100.00;100942.06;6188780;23;20005;-74
2023/07/31 00:28:08;;;;;;;4.05;1.75;;;;;;;14.96;100.00;100937.91;6189536;23;20018;-75
2023/07/31 00:30:34;;;;;;;1.83;1.73;;;;;;;14.98;100.00;100940.13;6187668;23;20018;-74
2023/07/31 00:33:01;;;;;;;2.88;2.20;;;;;;;15.00;100.00;100946.50;6189489;23;20018;-75
2023/07/31 00:35:29;;;;;;;3.88;2.42;;;;;;;15.02;100.00;100946.78;6188594;23;20081;-74
2023/07/31 00:37:58;;;;;;;4.55;2.45;;;;;;;15.05;100.00;100934.38;6162993;23;20021;-74
2023/07/31 00:40:25;;;;;;;8.93;3.33;;;;;;;15.08;100.00;100933.47;6188859;23;20065;-75
2023/07/31 00:42:52;;;;;;;8.60;3.70;;;;;;;15.12;100.00;100934.00;6188818;23;20017;-75
2023/07/31 00:45:18;;;;;;;12.70;4.28;;;;;;;15.17;100.00;100929.94;6188620;23;20049;-74
2023/07/31 00:47:45;;;;;;;12.55;4.50;;;;;;;15.22;100.00;100924.63;6162638;23;20024;-74
2023/07/31 00:50:14;;;;;;;19.40;4.88;;;;;;;15.27;100.00;100925.91;6162583;23;20028;-74
2023/07/31 00:52:40;;;;;;;14.40;5.07;;;;;;;15.33;100.00;100924.78;6188710;23;20013;-75
2023/07/31 00:55:08;;;;;;;21.45;5.72;;;;;;;15.39;100.00;100929.50;6162824;23;20463;-74
2023/07/31 00:57:37;;;;;;;24.08;5.82;;;;;;;15.44;100.00;100920.78;6188012;23;20475;-74
2023/07/31 01:00:05;;;;;;;21.80;5.30;;;;;;;15.49;100.00;100923.53;6189336;23;20432;-74
2023/07/31 01:02:31;;;;;;;20.60;6.10;;;;;;;15.53;100.00;100916.03;6137213;23;20097;-74
2023/07/31 01:04:58;;;;;;;20.65;5.57;;;;;;;15.56;100.00;100917.81;6189248;23;20022;-74
2023/07/31 01:07:30;;;;;;;21.40;6.00;;;;;;;15.59;100.00;100916.88;6188562;23;20024;-74
2023/07/31 01:10:28;;;;;;;24.27;6.68;;;;;;;15.62;100.00;100926.63;6189071;23;20021;-74
2023/07/31 01:12:56;;;;;;;13.43;5.70;;;;;;;15.63;100.00;100912.00;6188633;23;20017;-74
2023/07/31 01:15:23;;;;;;;29.50;6.38;;;;;;;15.67;100.00;100915.22;6188587;23;20018;-74
2023/07/31 01:17:50;;;;;;;24.92;6.20;;;;;;;15.68;100.00;100919.41;6189389;23;20440;-74
2023/07/31 01:20:21;;;;;;;17.10;5.93;;;;;;;15.70;100.00;100932.34;6189263;23;20043;-74
2023/07/31 01:23:15;;;;;;;14.07;5.07;;;;;;;15.71;100.00;100931.13;6189452;23;20025;-74
2023/07/31 01:26:18;;;;;;;16.15;5.50;;;;;;;15.73;100.00;100919.94;6162088;23;20022;-74
2023/07/31 01:28:56;;;;;;;14.75;5.45;;;;;;;15.74;100.00;100927.50;6162232;23;20495;-74
2023/07/31 01:31:25;;;;;;;16.50;4.47;;;;;;;15.72;100.00;100921.88;6158618;23;20065;-73
2023/07/31 01:33:54;;;;;;;13.65;4.75;;;;;;;15.73;100.00;100907.25;6159242;23;20093;-74
2023/07/31 01:36:22;;;;;;;14.30;4.78;;;;;;;15.76;100.00;100924.38;6131944;23;20026;-75
2023/07/31 01:38:48;;;;;;;14.13;5.13;;;;;;;15.77;100.00;100923.91;6159454;23;20478;-75
2023/07/31 01:41:17;;;;;;;17.85;5.63;;;;;;;15.78;100.00;100924.63;6132439;23;20025;-75
2023/07/31 01:43:45;;;;;;;21.17;6.78;;;;;;;15.79;100.00;100926.84;6132778;23;20018;-75
2023/07/31 01:46:12;;;;;;;22.30;5.78;;;;;;;15.77;100.00;100926.56;6132685;23;20032;-75
2023/07/31 01:48:39;;;;;;;25.73;5.78;;;;;;;15.78;100.00;100916.59;6132065;23;20093;-75
2023/07/31 01:51:06;;;;;;;25.67;5.75;;;;;;;15.79;100.00;100918.06;6159349;23;20081;-75
2023/07/31 01:53:32;;;;;;;22.02;5.45;;;;;;;15.78;100.00;100913.91;6158672;23;20073;-76
2023/07/31 01:55:59;;;;;;;15.90;5.68;;;;;;;15.79;100.00;100912.69;6158565;23;20018;-75
2023/07/31 01:58:26;;;;;;;25.00;5.45;;;;;;;15.80;100.00;100903.44;6158656;23;20014;-76
2023/07/31 02:00:52;;;;;;;18.77;6.45;;;;;;;15.80;100.00;100911.47;6132719;23;20356;-76
2023/07/31 02:03:19;;;;;;;23.17;6.28;;;;;;;15.79;100.00;100908.06;6158270;23;20475;-76
2023/07/31 02:05:47;;;;;;;12.95;5.60;;;;;;;15.79;100.00;100908.06;6159163;23;20018;-75
2023/07/31 02:08:14;;;;;;;15.93;5.30;;;;;;;15.81;100.00;100896.84;6132502;23;20021;-75
2023/07/31 02:10:41;;;;;;;17.23;4.95;;;;;;;15.80;100.00;100893.44;6131346;23;20025;-76
2023/07/31 02:13:08;;;;;;;12.68;4.75;;;;;;;15.79;100.00;100894.63;6132594;23;20352;-75
2023/07/31 02:15:35;;;;;;;15.73;5.13;;;;;;;15.76;100.00;100887.53;6131788;23;20037;-75
2023/07/31 02:18:01;;;;;;;13.23;4.78;;;;;;;15.75;100.00;100880.69;6158862;23;20022;-76
2023/07/31 02:20:28;;;;;;;10.43;5.07;;;;;;;15.75;100.00;100883.38;6158098;23;20080;-76
2023/07/31 02:22:54;;;;;;;14.23;5.28;;;;;;;15.73;100.00;100875.06;6133309;23;20022;-76
2023/07/31 02:25:21;;;;;;;15.60;4.65;;;;;;;15.74;100.00;100873.09;6158888;23;20046;-76
2023/07/31 02:27:48;;;;;;;17.75;5.03;;;;;;;15.74;100.00;100873.09;6160145;23;20049;-76
2023/07/31 02:30:14;;;;;;;15.25;4.95;;;;;;;15.73;100.00;100872.38;6175997;23;20158;-76
2023/07/31 02:32:41;;;;;;;11.98;4.72;;;;;;;15.73;100.00;100868.94;6163136;23;20014;-76
2023/07/31 02:35:08;;;;;;;10.55;4.68;;;;;;;15.72;100.00;100870.16;6163278;23;20026;-76
2023/07/31 02:37:34;;;;;;;20.25;5.32;;;;;;;15.74;100.00;100867.72;6188856;23;20049;-76
2023/07/31 02:40:01;;;;;;;11.25;4.90;;;;;;;15.73;100.00;100861.63;6189404;23;20014;-76
2023/07/31 02:42:28;;;;;;;10.98;4.60;;;;;;;15.73;100.00;100864.31;6162449;23;20056;-76
2023/07/31 02:44:55;;;;;;;13.40;4.60;;;;;;;15.72;100.00;100870.88;6190054;23;20104;-76
2023/07/31 02:47:22;;;;;;;15.00;4.80;;;;;;;15.72;100.00;100870.88;6189089;23;20017;-76
2023/07/31 02:49:49;;;;;;;11.43;5.22;;;;;;;15.72;100.00;100870.88;6189980;23;20506;-76
2023/07/31 02:52:16;;;;;;;13.45;4.50;;;;;;;15.72;100.00;100860.16;6189960;23;20547;-76
2023/07/31 02:54:43;;;;;;;15.38;4.72;;;;;;;15.72;100.00;100862.09;6189107;23;20072;-76
2023/07/31 02:57:09;;;;;;;9.45;4.85;;;;;;;15.72;100.00;100856.72;6189741;23;20096;-76
2023/07/31 02:59:36;;;;;;;17.52;5.20;;;;;;;15.74;100.00;100859.69;6162623;23;20017;-74
2023/07/31 03:02:03;;;;;;;22.98;5.20;;;;;;;15.74;100.00;100854.31;6189911;23;20043;-74
2023/07/31 03:04:29;;;;;;;17.33;5.07;;;;;;;15.74;100.00;100848.94;6189032;23;20051;-76
2023/07/31 03:06:56;;;;;;;18.02;5.22;;;;;;;15.74;100.00;100851.63;6163213;23;20018;-74
2023/07/31 03:09:23;;;;;;;15.32;6.07;;;;;;;15.75;100.00;100855.78;6161789;23;20022;-74
2023/07/31 03:11:49;;;;;;;19.42;6.15;;;;;;;15.74;100.00;100857.75;6163383;23;20018;-74
2023/07/31 03:14:16;;;;;;;21.27;5.97;;;;;;;15.75;100.00;100853.09;6189787;23;20044;-75
2023/07/31 03:16:44;;;;;;;17.10;5.47;;;;;;;15.73;100.00;100850.16;6162931;23;20400;-75
2023/07/31 03:19:10;;;;;;;18.98;6.13;;;;;;;15.71;100.00;100858.69;6162969;23;20014;-74
2023/07/31 03:21:37;;;;;;;16.38;5.65;;;;;;;15.71;100.00;100847.94;6188914;23;20393;-74
2023/07/31 03:24:04;;;;;;;13.02;5.60;;;;;;;15.72;100.00;100851.38;6162598;23;20025;-74
2023/07/31 03:26:33;;;;;;;16.85;6.00;;;;;;;15.72;100.00;100851.38;6188909;23;20036;-75
2023/07/31 03:29:01;;;;;;;22.13;6.13;;;;;;;15.72;100.00;100846.72;6162960;23;20032;-75
2023/07/31 03:31:28;;;;;;;21.55;6.18;;;;;;;15.73;100.00;100844.78;6162457;23;20021;-74
2023/07/31 03:33:55;;;;;;;17.00;5.97;;;;;;;15.71;100.00;100853.31;6162768;23;20025;-74
2023/07/31 03:36:21;;;;;;;23.10;6.57;;;;;;;15.71;100.00;100853.31;6162049;23;20481;-75
2023/07/31 03:38:48;;;;;;;21.75;7.28;;;;;;;15.68;100.00;100843.53;6188974;23;20436;-74
2023/07/31 03:41:14;;;;;;;20.40;6.47;;;;;;;15.69;100.00;100847.69;6189626;23;20017;-74
2023/07/31 03:43:46;;;;;;;20.67;6.80;;;;;;;15.67;100.00;100847.41;6162728;23;20113;-75
2023/07/31 03:46:12;;;;;;;18.73;6.57;;;;;;;15.64;100.00;100843.72;6163336;23;20018;-75
2023/07/31 03:48:39;;;;;;;17.95;6.32;;;;;;;15.64;100.00;100849.09;6189120;23;20017;-75
2023/07/31 03:51:05;;;;;;;18.27;6.63;;;;;;;15.64;100.00;100845.66;6162948;23;20022;-75
2023/07/31 03:53:32;;;;;;;24.48;6.70;;;;;;;15.62;100.00;100840.78;6188411;23;20471;-75
2023/07/31 03:55:59;;;;;;;14.57;6.32;;;;;;;15.62;100.00;100848.81;6189654;23;20044;-75
2023/07/31 03:58:25;;;;;;;26.45;7.57;;;;;;;15.62;100.00;100848.09;6188725;23;20017;-75
2023/07/31 04:00:52;;;;;;;21.20;7.47;;;;;;;15.63;100.00;100842.25;6189598;23;20429;-75
2023/07/31 04:03:18;;;;;;;15.55;6.20;;;;;;;15.62;100.00;100838.09;6188864;23;20431;-74
2023/07/31 04:05:45;;;;;;;16.77;6.10;;;;;;;15.62;100.00;100835.41;6189454;23;20354;-75
2023/07/31 04:08:11;;;;;;;16.08;5.93;;;;;;;15.62;100.00;100835.41;6188972;23;20435;-75
2023/07/31 04:10:38;;;;;;;14.20;5.93;;;;;;;15.60;100.00;100821.72;6188948;23;20835;-75
2023/07/31 04:13:04;;;;;;;20.27;6.22;;;;;;;15.57;100.00;100830.75;6189426;23;20081;-75
2023/07/31 04:15:31;;;;;;;17.77;5.95;;;;;;;15.54;100.00;100822.88;6188705;23;20018;-75
2023/07/31 04:17:57;;;;;;;17.67;6.40;;;;;;;15.55;100.00;100813.59;6189485;23;20145;-75
2023/07/31 04:20:24;;;;;;;25.65;6.80;;;;;;;15.52;100.00;100807.25;6161947;23;20045;-76
2023/07/31 04:22:50;;;;;;;17.40;6.93;;;;;;;15.51;100.00;100805.75;6189418;23;20029;-75
2023/07/31 04:25:17;;;;;;;20.95;6.75;;;;;;;15.51;100.00;100795.03;6189539;23;20018;-75
2023/07/31 04:27:44;;;;;;;21.95;6.30;;;;;;;15.52;100.00;100795.78;6189482;23;20440;-76
2023/07/31 04:30:10;;;;;;;17.15;6.13;;;;;;;15.51;100.00;100795.03;6188938;23;20088;-75
2023/07/31 04:32:37;;;;;;;17.02;6.20;;;;;;;15.50;100.00;100800.88;6188743;23;20370;-75
2023/07/31 04:35:04;;;;;;;22.05;6.32;;;;;;;15.48;100.00;100798.66;6188836;23;20455;-76
2023/07/31 04:37:30;;;;;;;16.77;6.18;;;;;;;15.50;100.00;100811.59;6188663;23;20018;-76
2023/07/31 04:39:57;;;;;;;17.58;5.90;;;;;;;15.50;100.00;100812.34;6189386;23;20428;-75
2023/07/31 04:42:23;;;;;;;19.92;6.07;;;;;;;15.49;100.00;100810.84;6188688;23;20026;-75
2023/07/31 04:44:50;;;;;;;20.00;6.40;;;;;;;15.49;100.00;100807.44;6188974;23;20021;-75
2023/07/31 04:47:16;;;;;;;22.52;6.05;;;;;;;15.48;100.00;100809.38;6189582;23;20033;-76
2023/07/31 04:49:43;;;;;;;14.23;5.90;;;;;;;15.48;100.00;100808.66;6188634;23;20017;-77
2023/07/31 04:52:10;;;;;;;22.67;6.10;;;;;;;15.48;100.00;100805.97;6189404;23;20045;-76
2023/07/31 04:54:36;;;;;;;15.50;6.22;;;;;;;15.48;100.00;100803.28;6162054;23;20313;-76
2023/07/31 04:57:03;;;;;;;20.83;6.35;;;;;;;15.47;100.00;100797.19;6162928;23;20028;-76
2023/07/31 04:59:31;;;;;;;18.80;6.32;;;;;;;15.46;100.00;100794.97;6188551;23;20018;-76
2023/07/31 05:01:58;;;;;;;16.10;5.70;;;;;;;15.46;100.00;100784.22;6189450;23;20022;-76
2023/07/31 05:04:24;;;;;;;15.40;5.50;;;;;;;15.44;100.00;100787.38;6188019;23;20068;-76
2023/07/31 05:06:51;;;;;;;19.52;5.40;;;;;;;15.43;100.00;100782.50;6189327;23;20024;-76
2023/07/31 05:09:18;;;;;;;12.73;5.75;;;;;;;15.43;100.00;100775.19;6162664;23;20013;-76
2023/07/31 05:11:44;;;;;;;10.80;5.57;;;;;;;15.42;100.00;100784.44;6189351;23;20105;-77
2023/07/31 05:14:11;;;;;;;11.00;5.22;;;;;;;15.41;100.00;100779.53;6189239;23;20463;-74
2023/07/31 05:16:37;;;;;;;10.82;5.13;;;;;;;15.41;100.00;100771.50;6188284;23;20038;-75
2023/07/31 05:19:04;;;;;;;17.98;6.18;;;;;;;15.40;100.00;100786.13;6188698;23;20021;-75
2023/07/31 05:21:31;;;;;;;11.57;5.55;;;;;;;15.40;100.00;100773.44;6188721;23;20467;-73
2023/07/31 05:23:58;;;;;;;12.93;5.38;;;;;;;15.39;100.00;100785.38;6163020;23;20048;-73
2023/07/31 05:26:24;;;;;;;12.35;6.35;;;;;;;15.40;100.00;100773.44;6161687;23;20080;-74
2023/07/31 05:28:51;;;;;;;13.27;5.35;;;;;;;15.41;100.00;100782.22;6162320;23;20043;-74
2023/07/31 05:31:17;;;;;;;14.73;5.32;;;;;;;15.38;100.00;100767.81;6188612;23;20052;-74
2023/07/31 05:33:44;;;;;;;10.55;5.75;;;;;;;15.38;100.00;100772.44;6188585;23;20018;-74
2023/07/31 05:36:11;;;;;;;7.45;4.15;;;;;;;15.37;100.00;100765.59;6189039;23;20013;-73
2023/07/31 05:38:37;;;;;;;4.70;3.53;;;;;;;15.34;100.00;100767.28;6188480;23;20037;-74
2023/07/31 05:41:06;;;;;;;6.35;3.88;;;;;;;15.34;100.00;100759.97;6189282;23;20519;-74
2023/07/31 05:43:33;;;;;;;11.23;3.70;;;;;;;15.33;100.00;100758.50;6188288;23;20021;-74
2023/07/31 05:46:01;;;;;;;7.38;3.17;;;;;;;15.35;100.00;100755.34;6189181;23;20160;-75
2023/07/31 05:48:31;;;;;;;;;;;;;;;15.36;100.00;100738.03;6188315;23;20049;-74
2023/07/31 05:50:58;;;;;;;3.58;2.90;;;;;;;15.35;100.00;100736.56;6189289;23;19924;-75
2023/07/31 05:53:24;;;;;;;4.82;3.25;;;;;;;15.35;100.00;100737.31;6188423;23;20017;-74
2023/07/31 05:55:51;;;;;;;7.88;3.13;;;;;;;15.36;100.00;100732.69;6189099;23;20380;-74
2023/07/31 05:58:17;;;;;;;6.72;3.95;;;;;;;15.40;100.00;100735.88;6188537;23;20023;-74
2023/07/31 06:00:44;;;;;;;5.68;3.70;;;;;;;15.40;100.00;100725.16;6189031;23;20018;-74
2023/07/31 06:03:10;;;;;;;7.93;3.78;;;;;;;15.39;100.00;100728.31;6188575;23;20038;-75
2023/07/31 06:05:37;;;;;;;4.47;4.00;;;;;;;15.39;100.00;100718.31;6188385;23;20024;-76
2023/07/31 06:08:04;;;;;;;7.65;4.28;;;;;;;15.40;100.00;100721.75;6189112;23;20013;-75
2023/07/31 06:10:30;;;;;;;7.28;4.30;;;;;;;15.42;100.00;100727.38;6188363;23;20028;-75
2023/07/31 06:12:57;;;;;;;6.97;4.20;;;;;;;15.41;100.00;100723.94;6188820;23;20018;-76
2023/07/31 06:15:23;;;;;;;8.75;4.47;;;;;;;15.42;100.00;100722.75;6188128;23;20014;-75
2023/07/31 06:17:50;;;;;;;8.25;4.38;;;;;;;15.41;100.00;100721.28;6161410;23;20088;-75
2023/07/31 06:20:17;;;;;;;7.82;4.07;;;;;;;15.41;100.00;100723.94;6188877;23;20025;-75
2023/07/31 06:22:43;;;;;;;4.28;3.85;;;;;;;15.43;100.00;100716.16;6188929;23;20041;-75
2023/07/31 06:25:10;;;;;;;5.60;3.33;;;;;;;15.42;100.00;100712.00;6189013;23;20014;-76
2023/07/31 06:27:41;;;;;;;7.30;4.13;;;;;;;15.41;100.00;100713.22;6188074;23;20013;-76
2023/07/31 06:30:08;;;;;;;4.47;3.65;;;;;;;15.45;100.00;100719.13;6188418;23;20101;-75
2023/07/31 06:32:34;;;;;;;5.95;3.97;;;;;;;15.46;100.00;100717.91;6187352;23;20017;-76
2023/07/31 06:35:01;;;;;;;7.60;3.85;;;;;;;15.47;100.00;100710.59;6162501;23;20013;-75
2023/07/31 06:37:27;;;;;;;5.75;3.53;;;;;;;15.50;100.00;100710.38;6187775;23;20018;-75
2023/07/31 06:39:54;;;;;;;7.70;3.05;;;;;;;15.52;100.00;100707.25;6188816;23;20025;-76
2023/07/31 06:42:21;;;;;;;5.72;3.05;;;;;;;15.53;100.00;100695.28;6187791;23;20021;-76
2023/07/31 06:44:47;;;;;;;4.10;3.10;;;;;;;15.54;100.00;100694.09;6188753;23;20014;-76
2023/07/31 06:47:14;;;;;;;6.40;3.22;;;;;;;15.56;100.00;100686.31;6136845;23;20045;-75
2023/07/31 06:49:40;;;;;;;3.63;2.90;;;;;;;15.58;100.00;100686.59;6187798;23;20021;-74
2023/07/31 06:52:07;;;;;;;3.65;2.92;;;;;;;15.61;100.00;100683.66;6162076;23;20021;-75
2023/07/31 06:54:34;;;;;;;4.47;3.17;;;;;;;15.62;100.00;100687.81;6187871;23;20410;-74
2023/07/31 06:57:00;;;;;;;4.88;2.95;;;;;;;15.66;100.00;100688.34;6188572;23;20044;-74
2023/07/31 06:59:27;;;;;;;2.85;2.65;;;;;;;15.72;100.00;100682.28;6187652;23;20025;-74
2023/07/31 07:01:53;;;;;;;3.15;2.85;;;;;;;15.76;100.00;100674.75;6187713;23;20076;-75
2023/07/31 07:04:20;;;;;;;3.78;3.30;;;;;;;15.80;100.00;100677.97;6187401;23;20013;-75
2023/07/31 07:06:46;;;;;;;5.97;3.10;;;;;;;15.82;100.00;100673.59;6188188;23;20014;-74
2023/07/31 07:09:13;;;;;;;3.08;2.63;;;;;;;15.81;100.00;100674.81;6189640;23;20102;-75
2023/07/31 07:11:40;;;;;;;3.80;3.33;;;;;;;15.83;100.00;100677.03;6189276;23;20024;-74
2023/07/31 07:14:07;;;;;;;3.10;2.80;;;;;;;15.85;100.00;100678.03;6189766;23;20088;-75
2023/07/31 07:16:33;;;;;;;3.30;3.10;;;;;;;15.89;100.00;100673.16;6188382;23;20470;-75
2023/07/31 07:19:00;;;;;;;3.42;3.13;;;;;;;15.93;100.00;100675.63;6189726;23;20022;-74
2023/07/31 07:21:30;;;;;;;3.80;3.30;;;;;;;15.95;100.00;100671.25;6189200;23;20013;-76
2023/07/31 07:23:57;;;;;;;4.68;3.40;;;;;;;15.97;100.00;100676.16;6189882;23;20020;-76
2023/07/31 07:26:23;;;;;;;4.72;3.38;;;;;;;15.96;100.00;100669.31;6189284;23;20014;-76
2023/07/31 07:28:50;;;;;;;4.55;3.25;;;;;;;15.98;100.00;100672.25;6189725;23;20485;-75
2023/07/31 07:31:17;;;;;;;3.50;3.20;;;;;;;16.00;100.00;100664.44;6189683;23;20040;-75
2023/07/31 07:33:44;;;;;;;6.70;3.60;;;;;;;16.02;100.00;100675.44;6189716;23;20018;-76
2023/07/31 07:36:12;;;;;;;3.72;2.83;;;;;;;16.04;100.00;100664.94;6189604;23;20021;-75
2023/07/31 07:38:39;;;;;;;2.72;2.63;;;;;;;16.07;100.00;100666.69;6162772;23;20454;-75
2023/07/31 07:41:06;;;;;;;3.47;3.13;;;;;;;16.08;100.00;100667.41;6189982;23;20454;-75
2023/07/31 07:43:32;;;;;;;3.00;2.80;;;;;;;16.11;100.00;100663.78;6188476;23;20022;-76
2023/07/31 07:45:58;;;;;;;4.40;3.13;;;;;;;16.16;100.00;100668.44;6189632;23;20018;-76
2023/07/31 07:48:25;;;;;;;3.38;3.00;;;;;;;16.19;100.00;100654.06;6188924;23;20018;-76
2023/07/31 07:50:52;;;;;;;4.80;2.95;;;;;;;16.19;100.00;100657.50;6189674;23;20470;-75
2023/07/31 07:53:18;;;;;;;3.55;3.22;;;;;;;16.23;100.00;100657.25;6189067;23;20044;-75
2023/07/31 07:55:45;;;;;;;4.18;2.70;;;;;;;16.26;100.00;100659.00;6189541;23;20502;-76
2023/07/31 07:58:12;;;;;;;2.92;2.67;;;;;;;16.32;100.00;100654.38;6188876;23;20032;-74
2023/07/31 08:00:39;;;;;;;2.90;2.70;;;;;;;16.37;100.00;100651.00;6188923;23;20021;-75
2023/07/31 08:03:05;;;;;;;2.95;2.50;;;;;;;16.39;100.00;100655.88;6189589;23;20324;-75
2023/07/31 08:05:34;;;;;;;3.53;2.33;;;;;;;16.36;100.00;100649.53;6188512;23;20020;-76
2023/07/31 08:08:01;;;;;;;3.20;2.35;;;;;;;16.40;100.00;100641.94;6138283;23;20025;-74
2023/07/31 08:10:27;;;;;;;2.58;2.38;;;;;;;16.46;100.00;100641.97;6189046;23;20404;-76
2023/07/31 08:12:54;;;;;;;2.65;2.33;;;;;;;16.50;100.00;100642.50;6188926;23;20014;-75
2023/07/31 08:15:20;;;;;;;2.55;2.38;;;;;;;16.55;100.00;100644.47;6188801;23;20041;-76
2023/07/31 08:17:47;;;;;;;2.17;2.08;;;;;;;16.58;100.00;100635.44;6189425;23;20053;-75
2023/07/31 08:20:14;;;;;;;2.40;2.20;;;;;;;16.60;100.00;100636.44;6188576;23;20068;-75
2023/07/31 08:22:41;;;;;;;2.38;2.17;;;;;;;16.65;100.00;100638.44;6188582;23;20013;-76
2023/07/31 08:25:07;;;;;;;1.83;1.73;;;;;;;16.72;100.00;100628.44;6189490;23;20020;-75
2023/07/31 08:27:34;;;;;;;3.67;1.75;;;;;;;16.72;100.00;100639.19;6188280;23;20018;-76
2023/07/31 08:30:01;;;;;;;5.13;2.00;;;;;;;16.75;100.00;100635.53;6188981;23;20014;-75
2023/07/31 08:32:27;;;;;;;1.75;1.65;;;;;;;16.74;100.00;100626.75;6188673;23;20453;-73
2023/07/31 08:34:54;;;;;;;1.88;1.70;;;;;;;16.79;100.00;100622.59;6163119;23;20013;-75
2023/07/31 08:37:20;;;;;;;2.45;1.60;;;;;;;16.82;100.00;100627.72;6188585;23;20022;-75
2023/07/31 08:39:47;;;;;;;1.90;1.80;;;;;;;16.87;100.00;100626.25;6189556;23;20453;-75
2023/07/31 08:42:13;;;;;;;1.73;1.50;;;;;;;16.92;100.00;100630.94;6188886;23;20096;-75
2023/07/31 08:44:41;;;;;;;1.77;1.67;;;;;;;17.02;100.00;100620.69;6162587;23;20014;-75
2023/07/31 08:47:08;;;;;;;1.50;1.40;;;;;;;17.10;100.00;100624.38;6189392;23;20021;-75
2023/07/31 08:49:37;;;;;;;2.60;1.60;;;;;;;17.10;100.00;100625.09;6188621;23;20018;-74
2023/07/31 08:52:03;;;;;;;1.20;1.10;;;;;;;17.11;100.00;100625.84;6189339;23;20018;-75
2023/07/31 08:54:32;;;;;;;4.80;1.35;;;;;;;17.20;100.00;100620.94;6188921;23;20032;-75
2023/07/31 08:57:00;;;;;;;1.58;1.48;;;;;;;17.23;100.00;100619.97;6188872;23;20057;-76
2023/07/31 08:59:30;;;;;;;2.30;1.55;;;;;;;17.22;100.00;100625.84;6188535;23;20052;-75
2023/07/31 09:02:01;;;;;;;4.85;1.30;;;;;;;17.24;100.00;100618.75;6189397;23;20037;-75
2023/07/31 09:04:28;;;;;;;1.83;1.40;;;;;;;17.24;100.00;100623.38;6188728;23;20013;-75
2023/07/31 09:06:59;;;;;;;2.08;1.60;;;;;;;17.27;100.00;100615.06;6189095;23;20021;-75
2023/07/31 09:09:26;;;;;;;2.78;1.48;;;;;;;17.36;100.00;100624.13;6188608;23;20064;-75
2023/07/31 09:11:53;;;;;;;1.42;1.40;;;;;;;17.39;100.00;100617.78;6188888;23;20013;-75
2023/07/31 09:14:19;;;;;;;1.48;1.38;;;;;;;17.44;100.00;100633.19;6188768;23;20018;-75
2023/07/31 09:16:58;;;;;;;1.42;1.42;;;;;;;17.47;100.00;100630.25;6189296;23;20076;-75
2023/07/31 09:19:34;;;;;;;1.83;1.73;;;;;;;17.48;100.00;100615.59;6188558;23;20065;-75
2023/07/31 09:22:00;;;;;;;2.40;1.67;;;;;;;17.48;100.00;100622.94;6189515;23;20399;-75
2023/07/31 09:24:30;;;;;;;3.88;1.60;;;;;;;17.42;100.00;100614.84;6188410;23;20444;-75
2023/07/31 09:26:58;;;;;;;1.67;1.60;;;;;;;17.38;100.00;100610.94;6188342;23;20089;-75
2023/07/31 09:29:30;;;;;;;1.83;1.73;;;;;;;17.38;100.00;100611.66;6187961;23;20073;-75
2023/07/31 09:31:57;;;;;;;1.90;1.73;;;;;;;17.37;100.00;100610.19;6189142;23;20088;-75
2023/07/31 09:34:30;;;;;;;1.90;1.80;;;;;;;17.42;100.00;100603.34;6188443;23;20020;-75
2023/07/31 09:37:00;;;;;;;2.08;1.88;;;;;;;17.54;100.00;100604.81;6189181;23;20022;-75
2023/07/31 09:39:29;;;;;;;2.67;2.00;;;;;;;17.56;100.00;100599.69;6187976;23;20018;-75
2023/07/31 09:41:56;;;;;;;2.50;2.13;;;;;;;17.60;100.00;100611.66;6189476;23;20017;-75
2023/07/31 09:44:39;;;;;;;2.17;1.92;;;;;;;17.74;100.00;100614.59;6188519;23;20014;-75
2023/07/31 09:47:06;;;;;;;2.17;2.08;;;;;;;17.84;100.00;100599.66;6189190;23;20022;-75
2023/07/31 09:49:33;;;;;;;2.20;2.05;;;;;;;17.95;100.00;100594.25;6188399;23;20017;-75
2023/07/31 09:52:00;;;;;;;1.90;1.80;;;;;;;17.99;100.00;100605.50;6189102;23;20439;-75
2023/07/31 09:54:26;;;;;;;1.95;1.85;;;;;;;17.99;100.00;100608.91;6187730;23;20014;-75
2023/07/31 09:56:54;;;;;;;1.60;1.50;;;;;;;17.93;100.00;100605.53;6189103;23;20052;-75
2023/07/31 09:59:21;;;;;;;3.88;1.95;;;;;;;17.89;100.00;100609.69;6188176;23;20078;-76
2023/07/31 10:01:51;;;;;;;3.60;2.00;;;;;;;17.83;100.00;100595.50;6189272;23;20069;-75
2023/07/31 10:04:26;;;;;;;2.05;1.90;;;;;;;17.88;100.00;100608.97;6188667;23;20017;-75
2023/07/31 10:06:54;;;;;;;2.05;1.90;;;;;;;18.02;100.00;100603.75;6162642;23;20053;-75
2023/07/31 10:09:24;;;;;;;2.10;2.00;;;;;;;18.10;100.00;100599.34;6187640;23;20018;-77
2023/07/31 10:12:00;;;;;;;3.35;1.95;;;;;;;18.16;100.00;100592.72;6162577;23;20462;-75
2023/07/31 10:14:28;;;;;;;2.05;1.95;;;;;;;18.05;100.00;100595.44;6188085;23;20440;-74
2023/07/31 10:16:58;;;;;;;3.03;2.70;;;;;;;18.02;100.00;100603.75;6188890;23;20041;-74
2023/07/31 10:19:26;;;;;;;2.22;2.13;;;;;;;18.00;100.00;100604.25;6161653;23;20499;-75
2023/07/31 10:21:53;;;;;;;2.88;2.65;;;;;;;18.03;100.00;100605.22;6188893;23;20020;-75
2023/07/31 10:24:20;;;;;;;2.72;2.53;;;;;;;18.01;100.00;100611.13;6187150;23;20030;-75
2023/07/31 10:26:48;;;;;;;3.00;2.70;;;;;;;18.03;100.00;100608.66;6189060;23;20963;-75
2023/07/31 10:29:17;;;;;;;3.42;3.13;;;;;;;17.99;100.00;100605.50;6188289;23;20053;-74
2023/07/31 10:31:46;;;;;;;3.50;3.20;;;;;;;17.94;100.00;100600.88;6162667;23;20072;-74
2023/07/31 10:34:14;;;;;;;3.80;3.47;;;;;;;17.92;100.00;100606.75;6137199;23;20534;-75
2023/07/31 10:36:40;;;;;;;4.18;3.30;;;;;;;17.98;100.00;100606.75;6188002;23;20017;-77
2023/07/31 10:39:35;;;;;;;6.28;3.30;;;;;;;18.02;100.00;100604.50;6187964;23;20017;-75
2023/07/31 10:42:10;;;;;;;3.92;3.47;;;;;;;18.12;100.00;100611.09;6188702;23;20024;-74
2023/07/31 10:44:37;;;;;;;4.13;3.83;;;;;;;18.14;100.00;100603.25;6162661;23;20623;-75
2023/07/31 10:47:04;;;;;;;4.85;3.42;;;;;;;18.21;100.00;100605.44;6190004;23;20030;-75
2023/07/31 10:49:32;;;;;;;4.00;3.70;;;;;;;18.29;100.00;100609.09;6189329;23;20072;-75
2023/07/31 10:51:58;;;;;;;3.58;3.33;;;;;;;18.41;100.00;100603.63;6162558;23;20483;-74
2023/07/31 10:54:27;;;;;;;3.35;3.03;;;;;;;18.48;100.00;100608.50;6189033;23;20020;-75
2023/07/31 10:56:53;;;;;;;3.63;3.17;;;;;;;18.52;100.00;100595.50;6189867;23;20025;-75
2023/07/31 10:59:28;;;;;;;3.60;3.30;;;;;;;18.51;100.00;100597.47;6189225;23;20447;-75
2023/07/31 11:01:57;;;;;;;3.22;2.92;;;;;;;18.44;100.00;100602.63;6190138;23;20025;-75
2023/07/31 11:04:26;;;;;;;6.13;3.30;;;;;;;18.45;100.00;100604.84;6189272;23;20444;-75
2023/07/31 11:06:57;;;;;;;3.42;3.20;;;;;;;18.52;100.00;100601.63;6162527;23;20056;-75
2023/07/31 11:09:33;;;;;;;4.38;2.85;;;;;;;18.60;100.00;100605.28;6189275;23;20024;-75
2023/07/31 11:12:00;;;;;;;2.67;2.47;;;;;;;18.62;100.00;100610.19;6163474;23;20045;-75
2023/07/31 11:14:27;;;;;;;2.20;2.00;;;;;;;18.58;100.00;100605.03;6189183;23;20018;-75
2023/07/31 11:16:53;;;;;;;2.65;2.50;;;;;;;18.57;100.00;100603.56;6189861;23;20021;-75